sensor_id;sensor_type;location;lat;lon;timestamp;pressure;altitude;pressure_sealevel;temperature
15062;BMP180;7630;50.306;8.566;2023-12-29T00:01:34;97568.00;;;11.50
15062;BMP180;7630;50.306;8.566;2023-12-29T00:05:36;97569.00;;;11.70
15062;BMP180;7630;50.306;8.566;2023-12-29T00:09:37;97579.00;;;11.60
15062;BMP180;7630;50.306;8.566;2023-12-29T00:13:43;97573.00;;;11.00
15062;BMP180;7630;50.306;8.566;2023-12-29T00:17:44;97557.00;;;11.30
15062;BMP180;7630;50.306;8.566;2023-12-29T00:21:48;97548.00;;;11.40
15062;BMP180;7630;50.306;8.566;2023-12-29T00:25:49;97550.00;;;10.10
15062;BMP180;7630;50.306;8.566;2023-12-29T00:29:50;97538.00;;;11.40
15062;BMP180;7630;50.306;8.566;2023-12-29T00:33:51;97540.00;;;11.70
15062;BMP180;7630;50.306;8.566;2023-12-29T00:37:53;97554.00;;;11.60
15062;BMP180;7630;50.306;8.566;2023-12-29T00:41:56;97541.00;;;10.40
15062;BMP180;7630;50.306;8.566;2023-12-29T00:45:58;97541.00;;;11.60
15062;BMP180;7630;50.306;8.566;2023-12-29T00:50:00;97528.00;;;11.90
15062;BMP180;7630;50.306;8.566;2023-12-29T00:54:02;97512.00;;;12.30
15062;BMP180;7630;50.306;8.566;2023-12-29T00:58:03;97520.00;;;11.10
15062;BMP180;7630;50.306;8.566;2023-12-29T01:02:05;97510.00;;;12.00
15062;BMP180;7630;50.306;8.566;2023-12-29T01:06:07;97517.00;;;11.50
15062;BMP180;7630;50.306;8.566;2023-12-29T01:10:09;97527.00;;;11.40
15062;BMP180;7630;50.306;8.566;2023-12-29T01:14:10;97540.00;;;10.70
15062;BMP180;7630;50.306;8.566;2023-12-29T01:18:12;97537.00;;;11.60
15062;BMP180;7630;50.306;8.566;2023-12-29T01:22:13;97534.00;;;11.70
15062;BMP180;7630;50.306;8.566;2023-12-29T01:26:15;97527.00;;;12.60
15062;BMP180;7630;50.306;8.566;2023-12-29T01:30:16;97515.00;;;12.40
15062;BMP180;7630;50.306;8.566;2023-12-29T01:34:17;97517.00;;;13.00
15062;BMP180;7630;50.306;8.566;2023-12-29T01:38:18;97511.00;;;12.80
15062;BMP180;7630;50.306;8.566;2023-12-29T01:42:20;97501.00;;;11.30
15062;BMP180;7630;50.306;8.566;2023-12-29T01:46:21;97518.00;;;12.30
15062;BMP180;7630;50.306;8.566;2023-12-29T01:50:22;97503.00;;;12.50
15062;BMP180;7630;50.306;8.566;2023-12-29T01:54:27;97497.00;;;12.60
15062;BMP180;7630;50.306;8.566;2023-12-29T01:58:29;97499.00;;;12.30
15062;BMP180;7630;50.306;8.566;2023-12-29T02:02:31;97493.00;;;12.40
15062;BMP180;7630;50.306;8.566;2023-12-29T02:06:33;97478.00;;;11.90
15062;BMP180;7630;50.306;8.566;2023-12-29T02:10:37;97494.00;;;12.10
15062;BMP180;7630;50.306;8.566;2023-12-29T02:14:38;97492.00;;;12.40
15062;BMP180;7630;50.306;8.566;2023-12-29T02:18:41;97486.00;;;12.00
15062;BMP180;7630;50.306;8.566;2023-12-29T02:22:44;97479.00;;;11.00
15062;BMP180;7630;50.306;8.566;2023-12-29T02:26:50;97489.00;;;11.20
15062;BMP180;7630;50.306;8.566;2023-12-29T02:31:09;97478.00;;;11.00
15062;BMP180;7630;50.306;8.566;2023-12-29T02:35:14;97478.00;;;10.30
15062;BMP180;7630;50.306;8.566;2023-12-29T02:39:16;97499.00;;;11.00
15062;BMP180;7630;50.306;8.566;2023-12-29T02:43:17;97488.00;;;11.20
15062;BMP180;7630;50.306;8.566;2023-12-29T02:47:19;97499.00;;;10.50
15062;BMP180;7630;50.306;8.566;2023-12-29T02:51:22;97490.00;;;11.70
15062;BMP180;7630;50.306;8.566;2023-12-29T02:55:23;97436.00;;;10.50
15062;BMP180;7630;50.306;8.566;2023-12-29T02:59:25;97492.00;;;11.10
15062;BMP180;7630;50.306;8.566;2023-12-29T03:03:26;97485.00;;;11.20
15062;BMP180;7630;50.306;8.566;2023-12-29T03:07:27;97482.00;;;10.70
15062;BMP180;7630;50.306;8.566;2023-12-29T03:11:28;97492.00;;;11.30
15062;BMP180;7630;50.306;8.566;2023-12-29T03:15:29;97474.00;;;10.20
15062;BMP180;7630;50.306;8.566;2023-12-29T03:19:30;97468.00;;;11.30
15062;BMP180;7630;50.306;8.566;2023-12-29T03:23:32;97466.00;;;11.30
15062;BMP180;7630;50.306;8.566;2023-12-29T03:27:33;97452.00;;;11.10
15062;BMP180;7630;50.306;8.566;2023-12-29T03:31:34;97449.00;;;11.00
15062;BMP180;7630;50.306;8.566;2023-12-29T03:35:35;97452.00;;;11.10
15062;BMP180;7630;50.306;8.566;2023-12-29T03:39:36;97428.00;;;11.00
15062;BMP180;7630;50.306;8.566;2023-12-29T03:43:38;97415.00;;;10.90
15062;BMP180;7630;50.306;8.566;2023-12-29T03:47:39;97415.00;;;10.40
15062;BMP180;7630;50.306;8.566;2023-12-29T03:51:40;97420.00;;;11.10
15062;BMP180;7630;50.306;8.566;2023-12-29T03:55:41;97412.00;;;9.70
15062;BMP180;7630;50.306;8.566;2023-12-29T03:59:43;97382.00;;;10.40
15062;BMP180;7630;50.306;8.566;2023-12-29T04:03:44;97444.00;;;11.50
15062;BMP180;7630;50.306;8.566;2023-12-29T04:07:46;97419.00;;;11.40
15062;BMP180;7630;50.306;8.566;2023-12-29T04:11:47;97429.00;;;11.60
15062;BMP180;7630;50.306;8.566;2023-12-29T04:15:48;97416.00;;;10.50
15062;BMP180;7630;50.306;8.566;2023-12-29T04:19:49;97415.00;;;10.60
15062;BMP180;7630;50.306;8.566;2023-12-29T04:23:50;97419.00;;;11.00
15062;BMP180;7630;50.306;8.566;2023-12-29T04:27:51;97421.00;;;10.30
15062;BMP180;7630;50.306;8.566;2023-12-29T04:31:54;97419.00;;;10.10
15062;BMP180;7630;50.306;8.566;2023-12-29T04:35:55;97419.00;;;10.30
15062;BMP180;7630;50.306;8.566;2023-12-29T04:39:56;97409.00;;;10.00
15062;BMP180;7630;50.306;8.566;2023-12-29T04:43:57;97411.00;;;10.20
15062;BMP180;7630;50.306;8.566;2023-12-29T04:47:58;97394.00;;;10.20
15062;BMP180;7630;50.306;8.566;2023-12-29T04:51:59;97399.00;;;10.00
15062;BMP180;7630;50.306;8.566;2023-12-29T04:56:01;97413.00;;;9.90
15062;BMP180;7630;50.306;8.566;2023-12-29T05:00:02;97395.00;;;10.00
15062;BMP180;7630;50.306;8.566;2023-12-29T05:04:05;97393.00;;;9.40
15062;BMP180;7630;50.306;8.566;2023-12-29T05:08:06;97390.00;;;9.70
15062;BMP180;7630;50.306;8.566;2023-12-29T05:12:08;97401.00;;;9.20
15062;BMP180;7630;50.306;8.566;2023-12-29T05:16:09;97385.00;;;9.30
15062;BMP180;7630;50.306;8.566;2023-12-29T05:20:11;97383.00;;;9.50
15062;BMP180;7630;50.306;8.566;2023-12-29T05:24:12;97393.00;;;9.80
15062;BMP180;7630;50.306;8.566;2023-12-29T05:28:13;97412.00;;;10.00
15062;BMP180;7630;50.306;8.566;2023-12-29T05:32:14;97378.00;;;9.70
15062;BMP180;7630;50.306;8.566;2023-12-29T05:36:16;97380.00;;;9.20
15062;BMP180;7630;50.306;8.566;2023-12-29T05:40:17;97396.00;;;10.00
15062;BMP180;7630;50.306;8.566;2023-12-29T05:44:18;97402.00;;;10.00
15062;BMP180;7630;50.306;8.566;2023-12-29T05:48:19;97398.00;;;10.20
15062;BMP180;7630;50.306;8.566;2023-12-29T05:52:21;97392.00;;;9.80
15062;BMP180;7630;50.306;8.566;2023-12-29T05:56:22;97391.00;;;9.90
15062;BMP180;7630;50.306;8.566;2023-12-29T06:00:25;97381.00;;;9.90
15062;BMP180;7630;50.306;8.566;2023-12-29T06:04:26;97401.00;;;10.60
15062;BMP180;7630;50.306;8.566;2023-12-29T06:08:27;97419.00;;;9.90
15062;BMP180;7630;50.306;8.566;2023-12-29T06:12:28;97406.00;;;9.50
15062;BMP180;7630;50.306;8.566;2023-12-29T06:16:30;97412.00;;;9.60
15062;BMP180;7630;50.306;8.566;2023-12-29T06:20:31;97428.00;;;10.60
15062;BMP180;7630;50.306;8.566;2023-12-29T06:24:33;97421.00;;;9.80
15062;BMP180;7630;50.306;8.566;2023-12-29T06:28:34;97383.00;;;10.20
15062;BMP180;7630;50.306;8.566;2023-12-29T06:32:36;97404.00;;;10.20
15062;BMP180;7630;50.306;8.566;2023-12-29T06:36:38;97403.00;;;10.20
15062;BMP180;7630;50.306;8.566;2023-12-29T06:40:40;97391.00;;;10.30
15062;BMP180;7630;50.306;8.566;2023-12-29T06:44:41;97381.00;;;9.70
15062;BMP180;7630;50.306;8.566;2023-12-29T06:48:42;97381.00;;;9.40
15062;BMP180;7630;50.306;8.566;2023-12-29T06:52:44;97377.00;;;9.50
15062;BMP180;7630;50.306;8.566;2023-12-29T06:56:45;97373.00;;;9.70
15062;BMP180;7630;50.306;8.566;2023-12-29T07:00:46;97386.00;;;9.50
15062;BMP180;7630;50.306;8.566;2023-12-29T07:04:48;97393.00;;;10.10
15062;BMP180;7630;50.306;8.566;2023-12-29T07:08:49;97393.00;;;9.20
15062;BMP180;7630;50.306;8.566;2023-12-29T07:12:50;97406.00;;;9.40
15062;BMP180;7630;50.306;8.566;2023-12-29T07:16:51;97409.00;;;10.30
15062;BMP180;7630;50.306;8.566;2023-12-29T07:20:53;97404.00;;;10.20
15062;BMP180;7630;50.306;8.566;2023-12-29T07:24:54;97413.00;;;10.00
15062;BMP180;7630;50.306;8.566;2023-12-29T07:28:56;97411.00;;;10.90
15062;BMP180;7630;50.306;8.566;2023-12-29T07:32:58;97410.00;;;10.20
15062;BMP180;7630;50.306;8.566;2023-12-29T07:36:59;97416.00;;;10.40
15062;BMP180;7630;50.306;8.566;2023-12-29T07:41:01;97419.00;;;10.40
15062;BMP180;7630;50.306;8.566;2023-12-29T07:45:02;97425.00;;;9.90
15062;BMP180;7630;50.306;8.566;2023-12-29T07:49:03;97419.00;;;10.60
15062;BMP180;7630;50.306;8.566;2023-12-29T07:53:06;97423.00;;;10.20
15062;BMP180;7630;50.306;8.566;2023-12-29T07:57:07;97417.00;;;10.70
15062;BMP180;7630;50.306;8.566;2023-12-29T08:01:09;97425.00;;;11.20
15062;BMP180;7630;50.306;8.566;2023-12-29T08:05:11;97421.00;;;10.70
15062;BMP180;7630;50.306;8.566;2023-12-29T08:09:14;97431.00;;;10.90
15062;BMP180;7630;50.306;8.566;2023-12-29T08:13:15;97435.00;;;11.00
15062;BMP180;7630;50.306;8.566;2023-12-29T08:17:16;97432.00;;;10.90
15062;BMP180;7630;50.306;8.566;2023-12-29T08:21:19;97431.00;;;10.50
15062;BMP180;7630;50.306;8.566;2023-12-29T08:25:20;97427.00;;;10.10
15062;BMP180;7630;50.306;8.566;2023-12-29T08:29:23;97425.00;;;10.70
15062;BMP180;7630;50.306;8.566;2023-12-29T08:33:26;97422.00;;;10.90
15062;BMP180;7630;50.306;8.566;2023-12-29T08:37:27;97416.00;;;10.80
15062;BMP180;7630;50.306;8.566;2023-12-29T08:41:29;97421.00;;;10.60
15062;BMP180;7630;50.306;8.566;2023-12-29T08:45:30;97412.00;;;10.70
15062;BMP180;7630;50.306;8.566;2023-12-29T08:49:31;97406.00;;;10.30
15062;BMP180;7630;50.306;8.566;2023-12-29T08:53:32;97405.00;;;10.10
15062;BMP180;7630;50.306;8.566;2023-12-29T08:57:35;97421.00;;;10.30
15062;BMP180;7630;50.306;8.566;2023-12-29T09:01:37;97406.00;;;10.30
15062;BMP180;7630;50.306;8.566;2023-12-29T09:05:38;97412.00;;;10.30
15062;BMP180;7630;50.306;8.566;2023-12-29T09:09:39;97414.00;;;10.40
15062;BMP180;7630;50.306;8.566;2023-12-29T09:13:41;97409.00;;;10.70
15062;BMP180;7630;50.306;8.566;2023-12-29T09:17:42;97392.00;;;10.00
15062;BMP180;7630;50.306;8.566;2023-12-29T09:21:43;97408.00;;;10.40
15062;BMP180;7630;50.306;8.566;2023-12-29T09:25:45;97399.00;;;9.70
15062;BMP180;7630;50.306;8.566;2023-12-29T09:29:46;97405.00;;;10.50
15062;BMP180;7630;50.306;8.566;2023-12-29T09:33:47;97390.00;;;10.60
15062;BMP180;7630;50.306;8.566;2023-12-29T09:37:48;97404.00;;;10.60
15062;BMP180;7630;50.306;8.566;2023-12-29T09:41:52;97405.00;;;10.20
15062;BMP180;7630;50.306;8.566;2023-12-29T09:45:54;97401.00;;;10.30
15062;BMP180;7630;50.306;8.566;2023-12-29T09:49:56;97401.00;;;10.40
15062;BMP180;7630;50.306;8.566;2023-12-29T09:53:59;97414.00;;;10.30
15062;BMP180;7630;50.306;8.566;2023-12-29T09:58:01;97410.00;;;10.40
15062;BMP180;7630;50.306;8.566;2023-12-29T10:02:04;97411.00;;;10.80
15062;BMP180;7630;50.306;8.566;2023-12-29T10:06:06;97395.00;;;10.80
15062;BMP180;7630;50.306;8.566;2023-12-29T10:10:16;97432.00;;;10.00
15062;BMP180;7630;50.306;8.566;2023-12-29T10:14:24;97424.00;;;10.40
15062;BMP180;7630;50.306;8.566;2023-12-29T10:18:29;97415.00;;;10.70
15062;BMP180;7630;50.306;8.566;2023-12-29T10:26:40;97417.00;;;11.00
15062;BMP180;7630;50.306;8.566;2023-12-29T10:30:41;97414.00;;;10.70
15062;BMP180;7630;50.306;8.566;2023-12-29T10:34:43;97420.00;;;10.60
15062;BMP180;7630;50.306;8.566;2023-12-29T10:38:44;97425.00;;;11.00
15062;BMP180;7630;50.306;8.566;2023-12-29T10:42:55;97408.00;;;10.40
15062;BMP180;7630;50.306;8.566;2023-12-29T10:46:58;97416.00;;;9.80
15062;BMP180;7630;50.306;8.566;2023-12-29T10:50:59;97416.00;;;10.60
15062;BMP180;7630;50.306;8.566;2023-12-29T10:55:10;97414.00;;;10.70
15062;BMP180;7630;50.306;8.566;2023-12-29T10:59:12;97423.00;;;10.80
15062;BMP180;7630;50.306;8.566;2023-12-29T11:03:15;97411.00;;;10.90
15062;BMP180;7630;50.306;8.566;2023-12-29T11:07:35;97407.00;;;11.10
15062;BMP180;7630;50.306;8.566;2023-12-29T11:11:34;97390.00;;;11.00
15062;BMP180;7630;50.306;8.566;2023-12-29T11:15:38;97393.00;;;10.40
15062;BMP180;7630;50.306;8.566;2023-12-29T11:19:43;97394.00;;;11.10
15062;BMP180;7630;50.306;8.566;2023-12-29T11:23:47;97385.00;;;10.70
15062;BMP180;7630;50.306;8.566;2023-12-29T11:27:48;97369.00;;;10.80
15062;BMP180;7630;50.306;8.566;2023-12-29T11:31:52;97366.00;;;11.30
15062;BMP180;7630;50.306;8.566;2023-12-29T11:35:57;97383.00;;;11.20
15062;BMP180;7630;50.306;8.566;2023-12-29T11:44:07;97380.00;;;11.60
15062;BMP180;7630;50.306;8.566;2023-12-29T11:48:08;97371.00;;;11.90
15062;BMP180;7630;50.306;8.566;2023-12-29T11:52:12;97375.00;;;12.20
15062;BMP180;7630;50.306;8.566;2023-12-29T11:56:16;97365.00;;;11.30
15062;BMP180;7630;50.306;8.566;2023-12-29T12:00:17;97357.00;;;11.50
15062;BMP180;7630;50.306;8.566;2023-12-29T12:08:45;97348.00;;;11.40
15062;BMP180;7630;50.306;8.566;2023-12-29T12:12:47;97350.00;;;11.50
15062;BMP180;7630;50.306;8.566;2023-12-29T12:16:50;97349.00;;;11.30
15062;BMP180;7630;50.306;8.566;2023-12-29T12:20:53;97339.00;;;11.70
15062;BMP180;7630;50.306;8.566;2023-12-29T12:24:56;97351.00;;;11.40
15062;BMP180;7630;50.306;8.566;2023-12-29T12:28:59;97361.00;;;11.60
15062;BMP180;7630;50.306;8.566;2023-12-29T12:33:02;97355.00;;;10.70
15062;BMP180;7630;50.306;8.566;2023-12-29T12:37:04;97355.00;;;11.10
15062;BMP180;7630;50.306;8.566;2023-12-29T12:41:11;97356.00;;;11.40
15062;BMP180;7630;50.306;8.566;2023-12-29T12:45:19;97351.00;;;10.80
15062;BMP180;7630;50.306;8.566;2023-12-29T12:49:21;97332.00;;;10.40
15062;BMP180;7630;50.306;8.566;2023-12-29T12:53:23;97355.00;;;10.80
15062;BMP180;7630;50.306;8.566;2023-12-29T12:57:25;97343.00;;;10.80
15062;BMP180;7630;50.306;8.566;2023-12-29T13:01:27;97349.00;;;11.30
15062;BMP180;7630;50.306;8.566;2023-12-29T13:05:30;97342.00;;;11.30
15062;BMP180;7630;50.306;8.566;2023-12-29T13:09:31;97343.00;;;11.40
15062;BMP180;7630;50.306;8.566;2023-12-29T13:13:37;97342.00;;;11.50
15062;BMP180;7630;50.306;8.566;2023-12-29T13:17:38;97337.00;;;11.90
15062;BMP180;7630;50.306;8.566;2023-12-29T13:21:39;97350.00;;;10.70
15062;BMP180;7630;50.306;8.566;2023-12-29T13:25:43;97335.00;;;11.80
15062;BMP180;7630;50.306;8.566;2023-12-29T13:29:44;97336.00;;;11.90
15062;BMP180;7630;50.306;8.566;2023-12-29T13:33:58;97326.00;;;11.30
15062;BMP180;7630;50.306;8.566;2023-12-29T13:38:06;97328.00;;;11.30
15062;BMP180;7630;50.306;8.566;2023-12-29T13:42:07;97334.00;;;11.10
15062;BMP180;7630;50.306;8.566;2023-12-29T13:46:11;97348.00;;;11.70
15062;BMP180;7630;50.306;8.566;2023-12-29T13:50:13;97342.00;;;11.70
15062;BMP180;7630;50.306;8.566;2023-12-29T13:54:16;97331.00;;;11.40
15062;BMP180;7630;50.306;8.566;2023-12-29T13:58:17;97339.00;;;11.00
15062;BMP180;7630;50.306;8.566;2023-12-29T14:02:31;97324.00;;;11.10
15062;BMP180;7630;50.306;8.566;2023-12-29T14:06:52;97327.00;;;10.70
15062;BMP180;7630;50.306;8.566;2023-12-29T14:10:54;97328.00;;;11.50
15062;BMP180;7630;50.306;8.566;2023-12-29T14:15:02;97326.00;;;11.40
15062;BMP180;7630;50.306;8.566;2023-12-29T14:18:59;97324.00;;;11.20
15062;BMP180;7630;50.306;8.566;2023-12-29T14:23:03;97337.00;;;11.20
15062;BMP180;7630;50.306;8.566;2023-12-29T14:27:05;97333.00;;;11.00
15062;BMP180;7630;50.306;8.566;2023-12-29T14:31:08;97325.00;;;11.10
15062;BMP180;7630;50.306;8.566;2023-12-29T14:35:10;97334.00;;;11.20
15062;BMP180;7630;50.306;8.566;2023-12-29T14:39:11;97338.00;;;11.80
15062;BMP180;7630;50.306;8.566;2023-12-29T14:43:18;97347.00;;;11.00
15062;BMP180;7630;50.306;8.566;2023-12-29T14:47:17;97347.00;;;10.80
15062;BMP180;7630;50.306;8.566;2023-12-29T14:51:18;97340.00;;;11.60
15062;BMP180;7630;50.306;8.566;2023-12-29T14:55:20;97328.00;;;10.60
15062;BMP180;7630;50.306;8.566;2023-12-29T14:59:23;97350.00;;;11.00
15062;BMP180;7630;50.306;8.566;2023-12-29T15:03:24;97323.00;;;10.40
15062;BMP180;7630;50.306;8.566;2023-12-29T15:07:26;97339.00;;;10.90
15062;BMP180;7630;50.306;8.566;2023-12-29T15:11:29;97332.00;;;10.60
15062;BMP180;7630;50.306;8.566;2023-12-29T15:15:30;97337.00;;;10.60
15062;BMP180;7630;50.306;8.566;2023-12-29T15:19:32;97323.00;;;10.30
15062;BMP180;7630;50.306;8.566;2023-12-29T15:23:33;97323.00;;;10.40
15062;BMP180;7630;50.306;8.566;2023-12-29T15:27:35;97319.00;;;10.70
15062;BMP180;7630;50.306;8.566;2023-12-29T15:31:36;97323.00;;;10.70
15062;BMP180;7630;50.306;8.566;2023-12-29T15:35:37;97312.00;;;10.40
15062;BMP180;7630;50.306;8.566;2023-12-29T15:39:40;97324.00;;;10.60
15062;BMP180;7630;50.306;8.566;2023-12-29T15:43:43;97308.00;;;10.90
15062;BMP180;7630;50.306;8.566;2023-12-29T15:47:45;97312.00;;;10.20
15062;BMP180;7630;50.306;8.566;2023-12-29T15:51:48;97298.00;;;10.10
15062;BMP180;7630;50.306;8.566;2023-12-29T15:55:49;97276.00;;;10.50
15062;BMP180;7630;50.306;8.566;2023-12-29T15:59:51;97292.00;;;9.90
15062;BMP180;7630;50.306;8.566;2023-12-29T16:03:52;97283.00;;;10.10
15062;BMP180;7630;50.306;8.566;2023-12-29T16:07:53;97294.00;;;9.50
15062;BMP180;7630;50.306;8.566;2023-12-29T16:11:55;97268.00;;;9.90
15062;BMP180;7630;50.306;8.566;2023-12-29T16:15:56;97254.00;;;9.90
15062;BMP180;7630;50.306;8.566;2023-12-29T16:19:58;97266.00;;;9.70
15062;BMP180;7630;50.306;8.566;2023-12-29T16:23:59;97279.00;;;9.50
15062;BMP180;7630;50.306;8.566;2023-12-29T16:28:02;97277.00;;;9.90
15062;BMP180;7630;50.306;8.566;2023-12-29T16:32:04;97271.00;;;10.20
15062;BMP180;7630;50.306;8.566;2023-12-29T16:36:11;97269.00;;;9.90
15062;BMP180;7630;50.306;8.566;2023-12-29T16:40:12;97263.00;;;10.10
15062;BMP180;7630;50.306;8.566;2023-12-29T16:44:13;97270.00;;;10.10
15062;BMP180;7630;50.306;8.566;2023-12-29T16:48:15;97264.00;;;9.90
15062;BMP180;7630;50.306;8.566;2023-12-29T16:52:16;97273.00;;;9.50
15062;BMP180;7630;50.306;8.566;2023-12-29T16:56:17;97253.00;;;9.90
15062;BMP180;7630;50.306;8.566;2023-12-29T17:00:19;97254.00;;;9.60
15062;BMP180;7630;50.306;8.566;2023-12-29T17:04:22;97262.00;;;9.50
15062;BMP180;7630;50.306;8.566;2023-12-29T17:08:24;97256.00;;;9.80
15062;BMP180;7630;50.306;8.566;2023-12-29T17:12:25;97261.00;;;9.40
15062;BMP180;7630;50.306;8.566;2023-12-29T17:16:27;97259.00;;;9.70
15062;BMP180;7630;50.306;8.566;2023-12-29T17:20:30;97272.00;;;9.70
15062;BMP180;7630;50.306;8.566;2023-12-29T17:24:33;97262.00;;;9.80
15062;BMP180;7630;50.306;8.566;2023-12-29T17:28:34;97257.00;;;9.70
15062;BMP180;7630;50.306;8.566;2023-12-29T17:32:35;97266.00;;;9.60
15062;BMP180;7630;50.306;8.566;2023-12-29T17:36:37;97271.00;;;9.50
15062;BMP180;7630;50.306;8.566;2023-12-29T17:40:38;97263.00;;;9.60
15062;BMP180;7630;50.306;8.566;2023-12-29T17:44:40;97293.00;;;9.90
15062;BMP180;7630;50.306;8.566;2023-12-29T17:48:42;97279.00;;;9.90
15062;BMP180;7630;50.306;8.566;2023-12-29T17:52:43;97221.00;;;9.60
15062;BMP180;7630;50.306;8.566;2023-12-29T17:56:44;97252.00;;;9.20
15062;BMP180;7630;50.306;8.566;2023-12-29T18:00:47;97290.00;;;9.70
15062;BMP180;7630;50.306;8.566;2023-12-29T18:04:48;97261.00;;;9.80
15062;BMP180;7630;50.306;8.566;2023-12-29T18:08:49;97258.00;;;9.40
15062;BMP180;7630;50.306;8.566;2023-12-29T18:12:51;97272.00;;;9.80
15062;BMP180;7630;50.306;8.566;2023-12-29T18:16:52;97289.00;;;9.80
15062;BMP180;7630;50.306;8.566;2023-12-29T18:20:53;97307.00;;;10.10
15062;BMP180;7630;50.306;8.566;2023-12-29T18:24:54;97292.00;;;9.80
15062;BMP180;7630;50.306;8.566;2023-12-29T18:28:56;97292.00;;;10.20
15062;BMP180;7630;50.306;8.566;2023-12-29T18:32:57;97131.00;;;10.00
15062;BMP180;7630;50.306;8.566;2023-12-29T18:36:59;97288.00;;;10.30
15062;BMP180;7630;50.306;8.566;2023-12-29T18:41:08;97287.00;;;9.90
15062;BMP180;7630;50.306;8.566;2023-12-29T18:45:09;97286.00;;;9.40
15062;BMP180;7630;50.306;8.566;2023-12-29T18:49:13;97290.00;;;9.60
15062;BMP180;7630;50.306;8.566;2023-12-29T18:53:16;97301.00;;;9.20
15062;BMP180;7630;50.306;8.566;2023-12-29T18:57:17;97303.00;;;9.80
15062;BMP180;7630;50.306;8.566;2023-12-29T19:01:19;97293.00;;;10.00
15062;BMP180;7630;50.306;8.566;2023-12-29T19:05:22;97292.00;;;9.80
15062;BMP180;7630;50.306;8.566;2023-12-29T19:09:23;97291.00;;;9.60
15062;BMP180;7630;50.306;8.566;2023-12-29T19:13:24;97302.00;;;9.10
15062;BMP180;7630;50.306;8.566;2023-12-29T19:17:26;97293.00;;;9.80
15062;BMP180;7630;50.306;8.566;2023-12-29T19:21:28;97291.00;;;9.20
15062;BMP180;7630;50.306;8.566;2023-12-29T19:25:30;97293.00;;;9.00
15062;BMP180;7630;50.306;8.566;2023-12-29T19:29:32;97288.00;;;9.80
15062;BMP180;7630;50.306;8.566;2023-12-29T19:33:33;97296.00;;;9.30
15062;BMP180;7630;50.306;8.566;2023-12-29T19:37:34;97296.00;;;9.40
15062;BMP180;7630;50.306;8.566;2023-12-29T19:41:35;97299.00;;;9.70
15062;BMP180;7630;50.306;8.566;2023-12-29T19:45:37;97292.00;;;9.70
15062;BMP180;7630;50.306;8.566;2023-12-29T19:49:40;97285.00;;;9.70
15062;BMP180;7630;50.306;8.566;2023-12-29T19:53:42;97296.00;;;9.00
15062;BMP180;7630;50.306;8.566;2023-12-29T19:57:43;97308.00;;;8.90
15062;BMP180;7630;50.306;8.566;2023-12-29T20:01:46;97331.00;;;9.40
15062;BMP180;7630;50.306;8.566;2023-12-29T20:05:50;97305.00;;;9.60
15062;BMP180;7630;50.306;8.566;2023-12-29T20:09:52;97288.00;;;9.50
15062;BMP180;7630;50.306;8.566;2023-12-29T20:13:53;97292.00;;;9.50
15062;BMP180;7630;50.306;8.566;2023-12-29T20:17:54;97284.00;;;9.70
15062;BMP180;7630;50.306;8.566;2023-12-29T20:21:55;97284.00;;;9.40
15062;BMP180;7630;50.306;8.566;2023-12-29T20:25:57;97287.00;;;9.40
15062;BMP180;7630;50.306;8.566;2023-12-29T20:29:58;97288.00;;;10.00
15062;BMP180;7630;50.306;8.566;2023-12-29T20:33:59;97289.00;;;9.40
15062;BMP180;7630;50.306;8.566;2023-12-29T20:38:01;97275.00;;;9.50
15062;BMP180;7630;50.306;8.566;2023-12-29T20:42:02;97274.00;;;9.90
15062;BMP180;7630;50.306;8.566;2023-12-29T20:46:03;97281.00;;;9.80
15062;BMP180;7630;50.306;8.566;2023-12-29T20:50:06;97290.00;;;9.60
15062;BMP180;7630;50.306;8.566;2023-12-29T20:54:08;97298.00;;;9.60
15062;BMP180;7630;50.306;8.566;2023-12-29T20:58:09;97295.00;;;10.00
15062;BMP180;7630;50.306;8.566;2023-12-29T21:02:10;97286.00;;;9.70
15062;BMP180;7630;50.306;8.566;2023-12-29T21:06:15;97285.00;;;9.40
15062;BMP180;7630;50.306;8.566;2023-12-29T21:10:17;97284.00;;;9.40
15062;BMP180;7630;50.306;8.566;2023-12-29T21:14:20;97286.00;;;9.00
15062;BMP180;7630;50.306;8.566;2023-12-29T21:18:23;97267.00;;;9.10
15062;BMP180;7630;50.306;8.566;2023-12-29T21:22:25;97284.00;;;9.10
15062;BMP180;7630;50.306;8.566;2023-12-29T21:26:26;97289.00;;;9.50
15062;BMP180;7630;50.306;8.566;2023-12-29T21:30:28;97285.00;;;9.20
15062;BMP180;7630;50.306;8.566;2023-12-29T21:34:29;97278.00;;;9.10
15062;BMP180;7630;50.306;8.566;2023-12-29T21:38:31;97281.00;;;9.50
15062;BMP180;7630;50.306;8.566;2023-12-29T21:42:33;97264.00;;;9.40
15062;BMP180;7630;50.306;8.566;2023-12-29T21:46:41;97291.00;;;9.20
15062;BMP180;7630;50.306;8.566;2023-12-29T21:50:42;97305.00;;;9.50
15062;BMP180;7630;50.306;8.566;2023-12-29T21:54:45;97291.00;;;9.20
15062;BMP180;7630;50.306;8.566;2023-12-29T21:58:46;97318.00;;;9.30
15062;BMP180;7630;50.306;8.566;2023-12-29T22:02:51;97311.00;;;9.00
15062;BMP180;7630;50.306;8.566;2023-12-29T22:06:52;97319.00;;;9.50
15062;BMP180;7630;50.306;8.566;2023-12-29T22:10:53;97324.00;;;9.20
15062;BMP180;7630;50.306;8.566;2023-12-29T22:14:55;97313.00;;;9.00
15062;BMP180;7630;50.306;8.566;2023-12-29T22:18:57;97325.00;;;9.30
15062;BMP180;7630;50.306;8.566;2023-12-29T22:22:59;97324.00;;;9.60
15062;BMP180;7630;50.306;8.566;2023-12-29T22:27:00;97334.00;;;9.60
15062;BMP180;7630;50.306;8.566;2023-12-29T22:31:02;97323.00;;;9.80
15062;BMP180;7630;50.306;8.566;2023-12-29T22:35:05;97332.00;;;9.40
15062;BMP180;7630;50.306;8.566;2023-12-29T22:39:06;97323.00;;;9.40
15062;BMP180;7630;50.306;8.566;2023-12-29T22:43:07;97314.00;;;9.50
15062;BMP180;7630;50.306;8.566;2023-12-29T22:47:09;97323.00;;;9.40
15062;BMP180;7630;50.306;8.566;2023-12-29T22:51:11;97284.00;;;9.30
15062;BMP180;7630;50.306;8.566;2023-12-29T22:55:13;97304.00;;;9.20
15062;BMP180;7630;50.306;8.566;2023-12-29T22:59:14;97318.00;;;9.10
15062;BMP180;7630;50.306;8.566;2023-12-29T23:03:16;97329.00;;;9.00
15062;BMP180;7630;50.306;8.566;2023-12-29T23:07:18;97327.00;;;8.70
15062;BMP180;7630;50.306;8.566;2023-12-29T23:11:19;97327.00;;;9.50
15062;BMP180;7630;50.306;8.566;2023-12-29T23:15:20;97323.00;;;9.60
15062;BMP180;7630;50.306;8.566;2023-12-29T23:19:22;97340.00;;;9.80
15062;BMP180;7630;50.306;8.566;2023-12-29T23:23:23;97336.00;;;9.50
15062;BMP180;7630;50.306;8.566;2023-12-29T23:27:24;97342.00;;;9.30
15062;BMP180;7630;50.306;8.566;2023-12-29T23:31:25;97339.00;;;9.30
15062;BMP180;7630;50.306;8.566;2023-12-29T23:35:26;97333.00;;;9.50
15062;BMP180;7630;50.306;8.566;2023-12-29T23:39:28;97342.00;;;9.40
15062;BMP180;7630;50.306;8.566;2023-12-29T23:43:30;97346.00;;;9.60
15062;BMP180;7630;50.306;8.566;2023-12-29T23:47:31;97353.00;;;9.50
15062;BMP180;7630;50.306;8.566;2023-12-29T23:51:32;97357.00;;;9.40
15062;BMP180;7630;50.306;8.566;2023-12-29T23:55:35;97336.00;;;8.90